Time;durP1;ratioP1;P1;durP2;ratioP2;P2;SDS_P1;SDS_P2;PMS_P1;PMS_P2;Temp;Humidity;BMP_temperature;BMP_pressure;BME280_temperature;BME280_humidity;BME280_pressure;Samples;Min_cycle;Max_cycle;Signal;HPM_P1;HPM_P2
2023/02/18 00:01:18;;;;;;;27.88;10.23;;;10.10;99.90;;;;;;4974457;28;20045;-72
2023/02/18 00:03:44;;;;;;;34.30;10.00;;;10.10;99.90;;;;;;4989300;28;20080;-72
2023/02/18 00:06:22;;;;;;;32.42;9.55;;;10.10;99.90;;;;;;4989194;28;20034;-72
2023/02/18 00:08:48;;;;;;;31.80;10.57;;;10.10;99.90;;;;;;4982497;28;20037;-72
2023/02/18 00:11:15;;;;;;;35.55;10.82;;;10.10;99.90;;;;;;4954507;28;1068574;-73
2023/02/18 00:13:41;;;;;;;34.17;11.48;;;10.10;99.90;;;;;;4997991;28;20038;-73
2023/02/18 00:16:10;;;;;;;33.42;11.77;;;10.00;99.90;;;;;;4994900;28;20038;-72
2023/02/18 00:18:36;;;;;;;38.97;11.20;;;10.00;99.90;;;;;;4994261;28;20109;-72
2023/02/18 00:21:07;;;;;;;33.42;12.23;;;10.00;99.90;;;;;;4990182;28;20438;-71
2023/02/18 00:23:33;;;;;;;30.00;11.38;;;10.00;99.90;;;;;;5002814;28;20046;-72
2023/02/18 00:26:03;;;;;;;36.03;11.57;;;10.10;99.90;;;;;;4994919;28;20039;-71
2023/02/18 00:28:29;;;;;;;34.58;10.75;;;10.10;99.90;;;;;;5001421;28;20120;-72
2023/02/18 00:30:54;;;;;;;32.38;10.23;;;10.00;99.90;;;;;;4995730;28;20487;-72
2023/02/18 00:33:20;;;;;;;41.75;10.98;;;10.00;99.90;;;;;;5001393;28;20080;-72
2023/02/18 00:35:48;;;;;;;48.70;12.68;;;10.00;99.90;;;;;;4992713;28;20045;-72
2023/02/18 00:38:14;;;;;;;37.65;11.85;;;10.00;99.90;;;;;;4989620;28;20066;-72
2023/02/18 00:40:41;;;;;;;33.75;10.38;;;9.90;99.90;;;;;;4984362;28;20074;-72
2023/02/18 00:43:07;;;;;;;44.03;11.35;;;9.90;99.90;;;;;;4994243;28;20070;-72
2023/02/18 00:45:33;;;;;;;29.92;10.57;;;9.90;99.90;;;;;;4994160;28;20140;-72
2023/02/18 00:47:58;;;;;;;33.35;11.20;;;9.90;99.90;;;;;;4974677;28;20515;-72
2023/02/18 00:50:24;;;;;;;29.58;9.98;;;9.90;99.90;;;;;;4998323;28;20057;-72
2023/02/18 00:52:49;;;;;;;30.52;9.35;;;9.80;99.90;;;;;;4987964;28;20046;-72
2023/02/18 00:55:15;;;;;;;27.38;9.27;;;9.80;99.90;;;;;;4993953;28;20180;-73
2023/02/18 00:57:40;;;;;;;27.33;9.13;;;9.80;99.90;;;;;;5005269;28;20097;-72
2023/02/18 01:00:08;;;;;;;25.38;8.93;;;9.80;99.90;;;;;;4991744;28;20503;-72
2023/02/18 01:02:33;;;;;;;31.25;9.82;;;9.80;99.90;;;;;;4993416;28;20494;-72
2023/02/18 01:05:00;;;;;;;28.50;9.70;;;9.80;99.90;;;;;;4990957;28;20092;-72
2023/02/18 01:07:26;;;;;;;23.42;7.80;;;9.80;99.90;;;;;;5006796;28;20045;-72
2023/02/18 01:09:52;;;;;;;21.80;8.45;;;9.80;99.90;;;;;;5000068;28;20037;-73
2023/02/18 01:12:17;;;;;;;20.60;7.93;;;9.70;99.90;;;;;;5000767;28;20044;-72
2023/02/18 01:14:43;;;;;;;23.13;8.50;;;9.70;99.90;;;;;;4994343;28;20123;-71
2023/02/18 01:17:08;;;;;;;28.02;8.68;;;9.80;99.90;;;;;;4973666;28;20092;-72
2023/02/18 01:19:37;;;;;;;24.38;8.23;;;9.70;99.90;;;;;;4980150;28;20049;-72
2023/02/18 01:22:03;;;;;;;26.23;8.90;;;9.80;99.90;;;;;;4999097;28;20498;-72
2023/02/18 01:24:28;;;;;;;24.40;8.50;;;9.70;99.90;;;;;;4992247;28;20026;-72
2023/02/18 01:26:54;;;;;;;22.00;8.85;;;9.70;99.90;;;;;;4999522;28;20427;-72
2023/02/18 01:29:19;;;;;;;27.10;9.82;;;9.70;99.90;;;;;;4991068;28;20042;-73
2023/02/18 01:31:45;;;;;;;30.10;9.15;;;9.70;99.90;;;;;;4994336;28;20028;-71
2023/02/18 01:34:10;;;;;;;22.42;9.02;;;9.70;99.90;;;;;;4974783;28;20046;-72
2023/02/18 01:36:36;;;;;;;27.42;8.70;;;9.70;99.90;;;;;;4973679;28;20440;-72
2023/02/18 01:39:01;;;;;;;28.90;9.52;;;9.70;99.90;;;;;;4994668;28;20034;-73
2023/02/18 01:41:27;;;;;;;29.95;9.15;;;9.70;99.90;;;;;;4990204;28;20033;-72
2023/02/18 01:44:16;;;;;;;27.33;10.05;;;9.70;99.90;;;;;;4990389;28;20044;-71
2023/02/18 01:46:42;;;;;;;31.17;9.88;;;9.70;99.90;;;;;;4978237;28;20033;-72
2023/02/18 01:49:09;;;;;;;38.05;10.45;;;9.60;99.90;;;;;;5002887;28;20034;-71
2023/02/18 01:51:42;;;;;;;31.88;10.02;;;9.70;99.90;;;;;;4991858;28;20053;-72
2023/02/18 01:54:17;;;;;;;31.73;10.65;;;9.70;99.90;;;;;;4995273;28;20042;-72
2023/02/18 01:57:06;;;;;;;29.75;10.63;;;9.70;99.90;;;;;;4985064;28;20100;-72
2023/02/18 01:59:36;;;;;;;30.30;10.23;;;9.70;99.90;;;;;;4980625;28;20149;-73
2023/02/18 02:02:03;;;;;;;46.03;12.52;;;9.70;99.90;;;;;;4988954;28;20387;-73
2023/02/18 02:04:28;;;;;;;31.35;9.88;;;9.70;99.90;;;;;;4988874;28;20076;-72
2023/02/18 02:06:54;;;;;;;33.03;10.02;;;9.70;99.90;;;;;;4996131;28;20034;-72
2023/02/18 02:09:22;;;;;;;33.08;9.65;;;9.70;99.90;;;;;;4988793;28;20037;-72
2023/02/18 02:12:05;;;;;;;29.52;9.65;;;9.70;99.90;;;;;;4995676;28;20038;-72
2023/02/18 02:14:52;;;;;;;36.03;11.45;;;9.70;99.90;;;;;;4994810;28;20038;-73
2023/02/18 02:17:38;;;;;;;31.92;10.95;;;9.70;99.90;;;;;;4987124;28;20829;-73
2023/02/18 02:20:26;;;;;;;37.00;11.00;;;9.80;99.90;;;;;;4985691;28;20050;-72
2023/02/18 02:23:16;;;;;;;38.05;11.20;;;9.80;99.90;;;;;;4972290;28;20442;-72
2023/02/18 02:26:00;;;;;;;31.33;12.05;;;9.80;99.90;;;;;;4961463;28;20038;-72
2023/02/18 02:28:34;;;;;;;39.38;12.77;;;9.80;99.90;;;;;;4967143;28;20494;-72
2023/02/18 02:31:19;;;;;;;33.55;12.45;;;9.80;99.90;;;;;;4990050;28;20478;-72
2023/02/18 02:34:39;;;;;;;30.58;10.77;;;9.80;99.90;;;;;;4982671;28;20046;-72
2023/02/18 02:37:17;;;;;;;32.10;11.17;;;9.80;99.90;;;;;;4897383;29;20047;-72
2023/02/18 02:40:01;;;;;;;33.72;11.13;;;9.80;99.90;;;;;;4910806;29;20816;-72
2023/02/18 02:42:52;;;;;;;31.50;10.18;;;9.80;99.90;;;;;;4962022;28;20160;-72
2023/02/18 02:45:36;;;;;;;34.17;10.10;;;9.80;99.90;;;;;;4987184;28;20041;-72
2023/02/18 02:48:32;;;;;;;36.05;11.50;;;9.80;99.90;;;;;;4995487;28;20501;-71
2023/02/18 02:51:19;;;;;;;35.85;11.95;;;9.90;99.90;;;;;;5012782;28;20038;-72
2023/02/18 02:53:44;;;;;;;37.22;11.52;;;9.90;99.90;;;;;;4980622;28;20066;-72
2023/02/18 02:56:18;;;;;;;33.05;11.20;;;9.90;99.90;;;;;;4996197;28;20458;-71
2023/02/18 02:58:49;;;;;;;37.58;11.60;;;9.90;99.90;;;;;;4987041;28;20042;-72
2023/02/18 03:01:40;;;;;;;38.50;10.77;;;9.90;99.90;;;;;;4978090;28;20126;-73
2023/02/18 03:04:30;;;;;;;29.38;9.63;;;9.90;99.90;;;;;;4975396;28;20415;-72
2023/02/18 03:07:15;;;;;;;30.35;8.98;;;10.00;99.90;;;;;;4993805;28;20041;-72
2023/02/18 03:09:49;;;;;;;28.30;10.25;;;10.00;99.90;;;;;;4992867;28;20042;-72
2023/02/18 03:12:38;;;;;;;30.45;10.75;;;10.00;99.90;;;;;;4991378;28;20046;-74
2023/02/18 03:15:12;;;;;;;29.33;10.25;;;10.00;99.90;;;;;;4986691;28;20637;-72
2023/02/18 03:18:16;;;;;;;30.17;10.23;;;10.00;99.90;;;;;;4994735;28;20042;-72
2023/02/18 03:20:55;;;;;;;28.50;9.60;;;10.00;99.90;;;;;;4940186;28;20038;-72
2023/02/18 03:23:26;;;;;;;26.95;8.43;;;10.00;99.90;;;;;;5005480;28;20042;-73
2023/02/18 03:25:54;;;;;;;23.92;7.45;;;10.00;99.90;;;;;;4988954;28;20041;-72
2023/02/18 03:28:21;;;;;;;20.00;6.13;;;10.00;99.90;;;;;;4995051;28;20100;-72
2023/02/18 03:30:51;;;;;;;19.33;5.65;;;10.00;99.90;;;;;;4987084;28;20114;-71
2023/02/18 03:33:24;;;;;;;15.18;4.85;;;10.00;99.90;;;;;;4976562;28;20034;-72
2023/02/18 03:35:52;;;;;;;13.65;4.57;;;9.90;99.90;;;;;;4992342;28;20039;-72
2023/02/18 03:38:27;;;;;;;11.95;4.15;;;9.90;99.90;;;;;;5001378;28;20076;-72
2023/02/18 03:40:53;;;;;;;10.82;4.20;;;9.90;99.90;;;;;;4986998;28;20405;-72
2023/02/18 03:43:19;;;;;;;10.25;3.67;;;9.90;99.90;;;;;;4980236;28;20597;-71
2023/02/18 03:45:44;;;;;;;9.70;3.28;;;10.00;99.90;;;;;;4992327;28;20038;-71
2023/02/18 03:48:10;;;;;;;10.15;3.55;;;9.90;99.90;;;;;;4999209;28;20037;-72
2023/02/18 03:50:35;;;;;;;8.43;3.47;;;9.90;99.90;;;;;;4979875;28;20037;-73
2023/02/18 03:53:01;;;;;;;7.15;3.15;;;9.90;99.90;;;;;;4994826;28;20038;-72
2023/02/18 03:55:26;;;;;;;9.13;3.67;;;9.90;99.90;;;;;;4993969;28;20047;-72
2023/02/18 03:57:52;;;;;;;8.40;3.15;;;9.90;99.90;;;;;;4987920;28;20035;-72
2023/02/18 04:00:19;;;;;;;7.80;3.42;;;9.90;99.90;;;;;;5002474;28;20069;-73
2023/02/18 04:02:45;;;;;;;10.38;3.67;;;10.00;99.90;;;;;;5004910;28;20027;-71
2023/02/18 04:05:11;;;;;;;8.70;3.35;;;10.00;99.90;;;;;;4994013;28;20042;-72
2023/02/18 04:07:36;;;;;;;13.30;4.30;;;10.00;99.90;;;;;;4994328;28;20029;-71
2023/02/18 04:10:03;;;;;;;8.60;3.30;;;10.00;99.90;;;;;;4997765;28;20034;-73
2023/02/18 04:12:29;;;;;;;11.77;3.50;;;10.10;99.90;;;;;;4996170;28;20034;-72
2023/02/18 04:14:54;;;;;;;9.35;3.45;;;10.10;99.90;;;;;;4999488;28;20092;-72
2023/02/18 04:17:20;;;;;;;8.60;3.00;;;10.10;99.90;;;;;;4990481;28;20403;-72
2023/02/18 04:19:46;;;;;;;11.93;3.58;;;10.10;99.90;;;;;;4997292;28;20037;-71
2023/02/18 04:22:11;;;;;;;8.00;3.63;;;10.00;99.90;;;;;;4979885;28;20188;-71
2023/02/18 04:24:37;;;;;;;8.07;3.35;;;10.00;99.90;;;;;;4977677;28;20034;-73
2023/02/18 04:27:02;;;;;;;9.30;4.18;;;10.00;99.90;;;;;;4989236;28;20507;-72
2023/02/18 04:29:31;;;;;;;9.45;3.63;;;10.00;99.90;;;;;;4992059;28;20030;-73
2023/02/18 04:31:56;;;;;;;9.77;3.45;;;10.00;99.90;;;;;;4993785;28;20437;-72
2023/02/18 04:34:22;;;;;;;8.43;3.50;;;10.00;99.90;;;;;;5002119;28;20128;-72
2023/02/18 04:36:47;;;;;;;7.85;3.60;;;10.00;99.90;;;;;;4973095;28;20659;-72
2023/02/18 04:39:13;;;;;;;8.30;3.47;;;10.00;99.90;;;;;;4996637;28;20049;-71
2023/02/18 04:41:39;;;;;;;9.63;3.67;;;10.00;99.90;;;;;;4995961;28;20046;-73
2023/02/18 04:44:04;;;;;;;8.98;4.00;;;10.00;99.90;;;;;;4992759;28;20042;-72
2023/02/18 04:46:31;;;;;;;10.75;4.40;;;9.90;99.90;;;;;;4986701;28;20317;-73
2023/02/18 04:48:57;;;;;;;9.27;4.43;;;10.00;99.90;;;;;;4996093;28;20044;-72
2023/02/18 04:51:22;;;;;;;12.68;4.60;;;9.90;99.90;;;;;;4998953;28;20046;-73
2023/02/18 04:53:48;;;;;;;13.07;4.28;;;9.90;99.90;;;;;;4989951;28;20042;-72
2023/02/18 04:56:13;;;;;;;12.07;4.70;;;10.00;99.90;;;;;;4988308;28;20038;-72
2023/02/18 04:58:42;;;;;;;12.57;5.38;;;9.90;99.90;;;;;;4977601;28;20744;-72
2023/02/18 05:01:07;;;;;;;10.73;6.13;;;10.00;99.90;;;;;;4991974;28;20045;-71
2023/02/18 05:03:33;;;;;;;13.70;4.93;;;10.00;99.90;;;;;;4976569;28;20436;-73
2023/02/18 05:05:59;;;;;;;13.93;5.38;;;10.00;99.90;;;;;;5008546;28;20030;-73
2023/02/18 05:08:25;;;;;;;16.60;6.47;;;10.00;99.90;;;;;;4999335;28;20034;-72
2023/02/18 05:10:50;;;;;;;15.10;6.82;;;10.00;99.90;;;;;;4976759;28;20042;-72
2023/02/18 05:13:16;;;;;;;15.30;7.65;;;10.00;99.90;;;;;;4998058;28;20120;-74
2023/02/18 05:15:42;;;;;;;19.40;7.03;;;10.00;99.90;;;;;;4988893;28;20030;-72
2023/02/18 05:18:07;;;;;;;18.33;7.65;;;10.00;99.90;;;;;;4989384;28;20038;-72
2023/02/18 05:20:33;;;;;;;18.92;7.22;;;10.00;99.90;;;;;;4992557;28;20038;-73
2023/02/18 05:22:59;;;;;;;18.45;8.18;;;10.00;99.90;;;;;;4995833;28;20088;-73
2023/02/18 05:25:25;;;;;;;22.73;8.77;;;10.00;99.90;;;;;;5000554;28;20042;-73
2023/02/18 05:27:50;;;;;;;27.88;9.05;;;10.00;99.90;;;;;;4994537;28;20042;-73
2023/02/18 05:30:16;;;;;;;26.58;9.85;;;10.00;99.90;;;;;;4988763;28;20073;-72
2023/02/18 05:32:41;;;;;;;26.65;9.52;;;10.10;99.90;;;;;;4974648;28;20034;-73
2023/02/18 05:35:10;;;;;;;22.50;9.30;;;10.10;99.90;;;;;;4998642;28;20030;-72
2023/02/18 05:37:36;;;;;;;21.98;9.00;;;10.00;99.90;;;;;;4978396;28;20042;-71
2023/02/18 05:40:02;;;;;;;21.98;8.77;;;10.00;99.90;;;;;;4993452;28;20368;-71
2023/02/18 05:42:28;;;;;;;24.10;10.00;;;10.00;99.90;;;;;;4989873;28;20042;-72
2023/02/18 05:44:53;;;;;;;18.90;8.35;;;10.00;99.90;;;;;;4995667;28;20033;-72
2023/02/18 05:47:19;;;;;;;18.23;7.90;;;10.00;99.90;;;;;;4998501;28;20072;-72
2023/02/18 05:49:45;;;;;;;20.25;8.05;;;10.00;99.90;;;;;;4971295;28;20051;-71
2023/02/18 05:52:11;;;;;;;17.30;7.45;;;10.00;99.90;;;;;;4996706;28;20697;-71
2023/02/18 05:54:38;;;;;;;15.15;6.85;;;10.00;99.90;;;;;;4975223;28;20042;-72
2023/02/18 05:57:04;;;;;;;15.50;6.40;;;10.00;99.90;;;;;;4992440;28;20026;-71
2023/02/18 05:59:30;;;;;;;21.48;6.90;;;10.00;99.90;;;;;;4980945;28;20104;-71
2023/02/18 06:01:56;;;;;;;17.63;7.68;;;10.00;99.90;;;;;;4981682;28;20425;-72
2023/02/18 06:04:21;;;;;;;18.02;7.45;;;10.00;99.90;;;;;;4978274;28;20035;-73
2023/02/18 06:06:47;;;;;;;20.90;8.63;;;10.10;99.90;;;;;;4971777;28;20056;-72
2023/02/18 06:09:13;;;;;;;15.25;6.90;;;10.10;99.90;;;;;;4996383;28;20196;-72
2023/02/18 06:11:38;;;;;;;20.48;8.85;;;10.00;99.90;;;;;;4969755;28;20042;-72
2023/02/18 06:14:04;;;;;;;19.42;7.60;;;10.10;99.90;;;;;;4987158;28;20065;-71
2023/02/18 06:16:30;;;;;;;15.43;7.30;;;10.10;99.90;;;;;;4974945;28;20046;-74
2023/02/18 06:18:56;;;;;;;22.85;8.70;;;10.10;99.90;;;;;;4993276;28;20030;-72
2023/02/18 06:21:22;;;;;;;20.58;8.50;;;10.10;99.90;;;;;;4978479;28;20068;-73
2023/02/18 06:23:47;;;;;;;19.85;8.13;;;10.00;99.90;;;;;;4997184;28;20189;-72
2023/02/18 06:26:13;;;;;;;21.23;7.88;;;10.10;99.90;;;;;;4994512;28;20041;-72
2023/02/18 06:28:39;;;;;;;29.15;9.35;;;10.10;99.90;;;;;;4991506;28;20506;-72
2023/02/18 06:31:04;;;;;;;22.52;9.02;;;10.10;99.90;;;;;;4999829;28;20049;-71
2023/02/18 06:33:30;;;;;;;21.20;8.50;;;10.10;99.90;;;;;;4989075;28;20042;-72
2023/02/18 06:35:59;;;;;;;19.83;7.32;;;10.10;99.90;;;;;;4999115;28;20550;-72
2023/02/18 06:38:25;;;;;;;18.40;6.97;;;10.10;99.90;;;;;;4995455;28;20686;-73
2023/02/18 06:40:53;;;;;;;19.90;7.80;;;10.00;99.90;;;;;;4992056;28;20172;-72
2023/02/18 06:43:20;;;;;;;18.33;7.38;;;10.00;99.90;;;;;;4985723;28;20586;-72
2023/02/18 06:45:45;;;;;;;24.48;7.82;;;10.00;99.90;;;;;;4987554;28;20398;-72
2023/02/18 06:48:12;;;;;;;23.15;8.13;;;10.00;99.90;;;;;;4978635;28;20046;-72
2023/02/18 06:50:39;;;;;;;20.90;7.15;;;10.00;99.90;;;;;;4986903;28;20035;-73
2023/02/18 06:53:11;;;;;;;22.90;7.35;;;10.00;99.90;;;;;;5002572;28;20129;-72
2023/02/18 06:55:37;;;;;;;21.50;6.78;;;10.00;99.90;;;;;;4989988;28;20050;-73
2023/02/18 06:58:02;;;;;;;21.55;7.55;;;10.00;99.90;;;;;;4999455;28;20036;-72
2023/02/18 07:00:28;;;;;;;21.77;5.63;;;10.00;99.90;;;;;;4988935;28;20471;-72
2023/02/18 07:02:56;;;;;;;15.20;5.25;;;10.00;99.90;;;;;;4988303;28;20034;-72
2023/02/18 07:05:22;;;;;;;17.65;5.63;;;10.10;99.90;;;;;;4995939;28;20026;-72
2023/02/18 07:07:48;;;;;;;22.02;5.60;;;10.00;99.90;;;;;;4999125;28;20036;-72
2023/02/18 07:10:13;;;;;;;21.17;5.05;;;10.10;99.90;;;;;;4988018;28;20043;-72
2023/02/18 07:12:39;;;;;;;20.73;5.68;;;10.00;99.90;;;;;;4985882;28;20085;-72
2023/02/18 07:15:08;;;;;;;18.50;5.68;;;10.00;99.90;;;;;;4974700;28;20049;-73
2023/02/18 07:17:33;;;;;;;19.98;5.88;;;10.10;99.90;;;;;;4994738;28;20068;-75
2023/02/18 07:19:59;;;;;;;32.05;6.35;;;10.10;99.90;;;;;;4973127;28;20062;-72
2023/02/18 07:22:26;;;;;;;19.20;5.82;;;10.10;99.90;;;;;;4991014;28;20786;-72
2023/02/18 07:24:52;;;;;;;12.40;4.18;;;10.00;99.90;;;;;;4990589;28;20042;-72
2023/02/18 07:27:19;;;;;;;15.93;4.50;;;10.10;99.90;;;;;;4990937;28;20033;-71
2023/02/18 07:29:44;;;;;;;15.50;3.83;;;10.00;99.90;;;;;;4994086;28;20037;-71
2023/02/18 07:32:12;;;;;;;17.90;3.80;;;10.00;99.90;;;;;;5002429;28;20034;-71
2023/02/18 07:34:38;;;;;;;18.85;3.38;;;10.10;99.90;;;;;;4978499;28;20155;-72
2023/02/18 07:37:08;;;;;;;16.45;4.55;;;10.10;99.90;;;;;;4990912;28;20452;-72
2023/02/18 07:39:34;;;;;;;16.25;3.10;;;10.10;99.90;;;;;;5006938;28;20034;-73
2023/02/18 07:42:03;;;;;;;10.73;2.65;;;10.00;99.90;;;;;;4994899;28;20646;-72
2023/02/18 07:44:29;;;;;;;10.52;3.35;;;10.10;99.90;;;;;;4991926;28;20455;-72
2023/02/18 07:46:55;;;;;;;24.80;3.83;;;10.10;99.90;;;;;;4984439;28;20418;-72
2023/02/18 07:49:20;;;;;;;20.25;2.72;;;10.10;99.90;;;;;;4984603;28;20033;-73
2023/02/18 07:51:47;;;;;;;8.18;2.13;;;10.10;99.90;;;;;;4994224;28;20156;-73
2023/02/18 07:54:13;;;;;;;12.73;1.92;;;10.10;99.90;;;;;;4999241;28;20042;-72
2023/02/18 07:56:39;;;;;;;14.20;2.15;;;10.10;99.90;;;;;;4974684;28;20038;-73
2023/02/18 07:59:05;;;;;;;17.10;2.47;;;10.20;99.90;;;;;;5002931;28;20042;-72
2023/02/18 08:01:31;;;;;;;11.73;2.10;;;10.10;99.90;;;;;;4981062;28;20375;-72
2023/02/18 08:03:56;;;;;;;18.15;2.67;;;10.10;99.90;;;;;;4982184;28;20089;-71
2023/02/18 08:06:28;;;;;;;16.13;1.50;;;10.10;99.90;;;;;;4993162;28;20034;-74
2023/02/18 08:08:54;;;;;;;8.43;1.70;;;10.00;99.90;;;;;;5003784;28;20041;-72
2023/02/18 08:11:19;;;;;;;14.48;2.22;;;10.00;99.90;;;;;;5000311;28;20042;-72
2023/02/18 08:13:47;;;;;;;16.70;2.35;;;10.00;99.90;;;;;;4981595;28;20030;-72
2023/02/18 08:16:13;;;;;;;16.92;2.85;;;9.90;99.90;;;;;;4989905;28;20372;-72
2023/02/18 08:18:38;;;;;;;8.38;1.90;;;9.90;99.90;;;;;;4981278;28;20061;-73
2023/02/18 08:21:04;;;;;;;10.27;1.60;;;9.80;99.90;;;;;;4977282;28;20093;-72
2023/02/18 08:23:30;;;;;;;9.82;1.50;;;9.80;99.90;;;;;;4972966;28;20049;-72
2023/02/18 08:25:55;;;;;;;13.05;1.98;;;9.90;99.90;;;;;;4998969;28;20034;-71
2023/02/18 08:28:22;;;;;;;9.32;2.30;;;9.90;99.90;;;;;;4996505;28;20030;-72
2023/02/18 08:30:51;;;;;;;15.13;2.33;;;9.90;99.90;;;;;;4992101;28;20037;-72
2023/02/18 08:33:17;;;;;;;9.77;1.30;;;9.80;99.90;;;;;;4996841;28;20126;-73
2023/02/18 08:35:43;;;;;;;11.63;1.92;;;9.80;99.90;;;;;;4990772;28;20060;-73
2023/02/18 08:38:08;;;;;;;22.48;3.58;;;9.80;99.90;;;;;;4996990;28;20062;-72
2023/02/18 08:40:34;;;;;;;16.38;1.70;;;9.80;99.90;;;;;;4997378;28;20042;-75
2023/02/18 08:43:00;;;;;;;17.25;1.65;;;9.90;99.90;;;;;;4994511;28;20040;-72
2023/02/18 08:45:26;;;;;;;8.45;1.70;;;9.80;99.90;;;;;;4996306;28;20033;-72
2023/02/18 08:47:51;;;;;;;9.90;2.38;;;9.80;99.90;;;;;;4996111;28;20054;-73
2023/02/18 08:50:19;;;;;;;5.60;0.98;;;9.80;99.90;;;;;;4997515;28;20034;-72
2023/02/18 08:52:44;;;;;;;10.57;2.13;;;9.80;99.90;;;;;;4987605;28;20030;-72
2023/02/18 08:55:10;;;;;;;10.38;1.13;;;9.80;99.90;;;;;;4979323;28;20026;-73
2023/02/18 08:57:35;;;;;;;15.75;2.30;;;9.80;99.90;;;;;;4999075;28;20080;-72
2023/02/18 09:00:01;;;;;;;7.45;1.30;;;9.90;99.90;;;;;;4995072;28;20438;-72
2023/02/18 09:02:28;;;;;;;9.15;1.67;;;9.90;99.90;;;;;;4987617;28;20117;-72
2023/02/18 09:04:53;;;;;;;11.15;1.92;;;9.90;99.90;;;;;;4993058;28;20038;-72
2023/02/18 09:07:19;;;;;;;11.32;1.73;;;10.00;99.90;;;;;;4988058;28;20915;-72
2023/02/18 09:09:44;;;;;;;8.88;1.67;;;10.00;99.90;;;;;;4973096;28;20042;-73
2023/02/18 09:12:10;;;;;;;16.90;3.67;;;10.00;99.90;;;;;;4992808;28;20069;-72
2023/02/18 09:14:36;;;;;;;9.13;1.48;;;10.00;99.90;;;;;;4998529;28;20494;-72
2023/02/18 09:17:01;;;;;;;7.03;1.65;;;10.00;99.90;;;;;;4998332;28;20088;-72
2023/02/18 09:19:27;;;;;;;10.10;1.70;;;10.00;99.90;;;;;;4998042;28;20076;-72
2023/02/18 09:21:53;;;;;;;9.07;1.23;;;10.10;99.90;;;;;;4993951;28;20053;-72
2023/02/18 09:24:19;;;;;;;9.82;1.65;;;10.10;99.90;;;;;;4985808;28;20034;-73
2023/02/18 09:26:45;;;;;;;10.85;1.35;;;10.10;99.90;;;;;;4972693;28;20046;-72
2023/02/18 09:29:13;;;;;;;13.38;1.67;;;10.10;99.90;;;;;;5002736;28;20041;-72
2023/02/18 09:31:39;;;;;;;9.02;2.80;;;10.10;99.90;;;;;;5003191;28;20133;-73
2023/02/18 09:34:05;;;;;;;8.23;1.42;;;10.20;99.90;;;;;;4988357;28;20113;-72
2023/02/18 09:36:31;;;;;;;10.65;1.58;;;10.20;99.90;;;;;;5003755;28;20121;-72
2023/02/18 09:38:58;;;;;;;9.43;1.27;;;10.30;99.90;;;;;;4990039;28;20089;-71
2023/02/18 09:41:41;;;;;;;16.00;1.52;;;10.30;99.90;;;;;;4987767;28;20057;-72
2023/02/18 09:44:17;;;;;;;14.38;1.75;;;10.30;99.90;;;;;;4998017;28;20041;-72
2023/02/18 09:46:50;;;;;;;9.73;1.70;;;10.40;99.90;;;;;;5000697;28;20046;-73
2023/02/18 09:49:20;;;;;;;6.85;1.02;;;10.40;99.90;;;;;;4995005;28;20062;-72
2023/02/18 09:51:46;;;;;;;10.35;1.73;;;10.50;99.90;;;;;;4972192;28;20391;-72
2023/02/18 09:54:16;;;;;;;11.40;2.03;;;10.50;99.90;;;;;;4999493;28;20034;-72
2023/02/18 09:56:43;;;;;;;11.60;1.30;;;10.50;99.90;;;;;;4978541;28;20109;-72
2023/02/18 09:59:17;;;;;;;16.48;1.90;;;10.50;99.90;;;;;;4987887;28;20038;-72
2023/02/18 10:01:44;;;;;;;11.90;2.55;;;10.60;99.90;;;;;;5002897;28;20187;-73
2023/02/18 10:04:22;;;;;;;11.55;2.55;;;10.60;99.90;;;;;;4992260;28;20045;-72
2023/02/18 10:06:51;;;;;;;10.48;2.05;;;10.60;99.90;;;;;;4978845;28;20123;-72
2023/02/18 10:09:37;;;;;;;11.18;2.33;;;10.70;99.90;;;;;;4972945;28;20038;-72
2023/02/18 10:12:18;;;;;;;10.23;1.88;;;10.70;99.90;;;;;;4988221;28;20125;-71
2023/02/18 10:14:58;;;;;;;12.32;1.60;;;10.80;99.90;;;;;;4996860;28;20061;-72
2023/02/18 10:17:26;;;;;;;10.02;2.60;;;10.90;99.90;;;;;;5002558;28;20097;-72
2023/02/18 10:19:54;;;;;;;18.27;1.63;;;10.90;99.90;;;;;;4981842;28;20029;-72
2023/02/18 10:22:22;;;;;;;13.02;1.50;;;10.80;99.90;;;;;;4975544;28;20030;-72
2023/02/18 10:25:01;;;;;;;7.60;2.33;;;10.80;99.90;;;;;;4997710;28;20368;-73
2023/02/18 10:27:30;;;;;;;21.38;1.73;;;10.80;99.90;;;;;;4999388;28;20113;-74
2023/02/18 10:30:20;;;;;;;13.63;2.20;;;10.90;99.90;;;;;;4991011;28;20072;-72
2023/02/18 10:32:47;;;;;;;18.75;2.70;;;10.90;99.90;;;;;;4997164;28;20030;-72
2023/02/18 10:35:21;;;;;;;14.15;2.00;;;10.90;99.90;;;;;;4991128;28;20034;-73
2023/02/18 10:37:53;;;;;;;16.63;2.10;;;10.90;99.90;;;;;;4996474;28;20046;-73
2023/02/18 10:40:39;;;;;;;13.82;2.20;;;10.90;99.90;;;;;;4974811;28;20030;-74
2023/02/18 10:43:18;;;;;;;10.20;1.70;;;11.00;99.90;;;;;;4989656;28;20042;-72
2023/02/18 10:45:55;;;;;;;16.92;2.05;;;11.00;99.90;;;;;;5004160;28;20037;-72
2023/02/18 10:48:46;;;;;;;10.30;2.08;;;11.10;99.90;;;;;;4996988;28;20482;-70
2023/02/18 10:51:20;;;;;;;6.40;1.40;;;11.10;99.90;;;;;;5006941;28;20046;-72
2023/02/18 10:53:48;;;;;;;8.85;2.72;;;11.20;99.90;;;;;;5007406;28;20038;-72
2023/02/18 10:56:31;;;;;;;16.27;2.45;;;11.20;99.90;;;;;;4991709;28;20034;-72
2023/02/18 10:59:22;;;;;;;14.38;2.30;;;11.40;99.90;;;;;;4990885;28;20034;-72
2023/02/18 11:02:03;;;;;;;14.05;2.42;;;11.40;99.90;;;;;;4999341;28;20096;-71
2023/02/18 11:04:39;;;;;;;11.00;2.53;;;11.50;99.90;;;;;;4982671;28;20034;-72
2023/02/18 11:07:20;;;;;;;16.45;1.27;;;11.50;99.90;;;;;;4995318;28;20267;-73
2023/02/18 11:09:49;;;;;;;11.27;1.55;;;11.60;99.90;;;;;;4990586;28;20469;-73
2023/02/18 11:12:42;;;;;;;7.82;2.10;;;11.60;99.90;;;;;;4992179;28;20070;-71
2023/02/18 11:15:13;;;;;;;19.90;2.65;;;11.60;99.90;;;;;;4989781;28;20057;-72
2023/02/18 11:17:44;;;;;;;5.28;1.40;;;11.70;99.90;;;;;;4985805;28;20503;-72
2023/02/18 11:20:24;;;;;;;14.05;1.73;;;11.70;99.90;;;;;;4990943;28;20070;-72
2023/02/18 11:22:50;;;;;;;6.77;1.37;;;11.80;99.90;;;;;;4988815;28;20101;-72
2023/02/18 11:25:19;;;;;;;6.57;1.25;;;11.80;99.90;;;;;;4990669;28;20723;-72
2023/02/18 11:27:49;;;;;;;13.48;1.52;;;11.80;99.90;;;;;;4989203;28;20431;-72
2023/02/18 11:30:21;;;;;;;6.63;1.00;;;11.90;99.90;;;;;;4971877;28;20089;-72
2023/02/18 11:32:50;;;;;;;18.15;2.22;;;11.90;99.90;;;;;;4971146;28;20117;-72
2023/02/18 11:35:19;;;;;;;12.57;1.88;;;11.80;99.90;;;;;;4989589;28;20043;-73
2023/02/18 11:37:45;;;;;;;9.50;1.85;;;11.80;99.90;;;;;;4992148;28;20092;-72
2023/02/18 11:40:27;;;;;;;14.05;2.45;;;11.80;99.90;;;;;;4990137;28;20506;-71
2023/02/18 11:43:03;;;;;;;8.13;1.80;;;11.80;99.90;;;;;;4988835;28;20030;-72
2023/02/18 11:45:32;;;;;;;9.88;1.40;;;11.80;99.90;;;;;;4971448;28;20541;-72
2023/02/18 11:48:15;;;;;;;16.88;2.80;;;11.80;99.90;;;;;;4988529;28;20038;-73
2023/02/18 11:50:42;;;;;;;13.57;1.98;;;11.80;99.90;;;;;;5001923;28;20030;-72
2023/02/18 11:53:29;;;;;;;12.95;1.90;;;11.80;99.90;;;;;;4989952;28;20046;-72
2023/02/18 11:56:00;;;;;;;14.40;2.33;;;11.80;99.90;;;;;;4970065;28;20034;-72
2023/02/18 11:58:28;;;;;;;15.45;1.73;;;11.90;99.90;;;;;;4970859;28;20084;-72
2023/02/18 12:00:57;;;;;;;14.18;3.25;;;12.00;99.90;;;;;;4988403;28;20646;-71
2023/02/18 12:03:52;;;;;;;10.15;1.70;;;12.20;99.90;;;;;;4989789;28;20468;-72
2023/02/18 12:06:27;;;;;;;12.80;1.17;;;12.30;99.90;;;;;;4987908;28;20061;-73
2023/02/18 12:08:59;;;;;;;11.25;1.98;;;12.50;99.90;;;;;;4989008;28;20051;-72
2023/02/18 12:11:33;;;;;;;6.93;1.40;;;12.60;99.90;;;;;;4988157;28;20073;-72
2023/02/18 12:13:59;;;;;;;10.60;1.20;;;12.60;99.90;;;;;;4991793;28;20038;-71
2023/02/18 12:16:33;;;;;;;10.68;1.15;;;12.50;99.90;;;;;;4987964;28;20553;-72
2023/02/18 12:19:31;;;;;;;9.93;1.15;;;12.60;99.90;;;;;;4987465;28;20039;-72
2023/02/18 12:22:09;;;;;;;12.85;2.15;;;12.60;99.90;;;;;;4988599;28;20059;-72
2023/02/18 12:24:51;;;;;;;8.43;1.30;;;12.50;99.90;;;;;;4987095;28;20141;-71
2023/02/18 12:27:27;;;;;;;10.65;1.58;;;12.50;99.90;;;;;;4990202;28;20521;-72
2023/02/18 12:30:26;;;;;;;12.05;2.40;;;12.40;99.90;;;;;;4988308;28;20530;-71
2023/02/18 12:33:01;;;;;;;9.65;1.65;;;12.60;99.90;;;;;;4989361;28;20042;-72
2023/02/18 12:35:47;;;;;;;6.85;1.10;;;12.60;99.90;;;;;;4988695;28;20038;-71
2023/02/18 12:38:18;;;;;;;9.77;1.38;;;12.60;99.90;;;;;;4987039;28;20065;-73
2023/02/18 12:40:52;;;;;;;9.80;1.23;;;12.80;99.90;;;;;;4992229;28;20049;-72
2023/02/18 12:43:28;;;;;;;4.57;0.80;;;12.70;99.90;;;;;;4993686;28;20053;-72
2023/02/18 12:46:10;;;;;;;11.25;1.15;;;12.80;99.90;;;;;;4969481;28;20038;-72
2023/02/18 12:48:56;;;;;;;10.55;1.77;;;12.80;99.90;;;;;;4989116;28;20038;-73
2023/02/18 12:51:49;;;;;;;11.98;1.40;;;12.80;99.90;;;;;;5002961;28;20042;-73
2023/02/18 12:54:32;;;;;;;16.40;1.30;;;13.00;99.90;;;;;;4987257;28;20057;-72
2023/02/18 12:57:34;;;;;;;11.65;1.13;;;13.20;99.90;;;;;;5002758;28;20100;-72